Time;durP1;ratioP1;P1;durP2;ratioP2;P2;SDS_P1;SDS_P2;PMS_P1;PMS_P2;Temp;Humidity;BMP_temperature;BMP_pressure;BME280_temperature;BME280_humidity;BME280_pressure;Samples;Min_cycle;Max_cycle;Signal;HPM_P1;HPM_P2
2021/11/23 00:01:49;;;;;;;8.13;3.58;;;19.30;39.10;;;;;;5113597;28;20039;-56
2021/11/23 00:04:14;;;;;;;8.27;3.92;;;19.30;39.00;;;;;;5112559;28;20047;-55
2021/11/23 00:06:39;;;;;;;8.95;4.22;;;19.30;39.10;;;;;;5113445;28;20034;-55
2021/11/23 00:09:05;;;;;;;8.73;4.05;;;19.30;39.10;;;;;;5112187;28;20046;-56
2021/11/23 00:11:31;;;;;;;10.77;4.75;;;19.30;39.10;;;;;;5113437;28;20020;-55
2021/11/23 00:13:57;;;;;;;7.80;4.03;;;19.30;39.10;;;;;;5113733;28;20030;-56
2021/11/23 00:16:23;;;;;;;7.97;3.90;;;19.30;39.10;;;;;;5113554;28;20096;-54
2021/11/23 00:18:48;;;;;;;8.00;4.00;;;19.30;39.10;;;;;;5113486;28;20016;-56
2021/11/23 00:21:14;;;;;;;8.23;3.78;;;19.30;39.00;;;;;;5113318;28;20531;-55
2021/11/23 00:23:41;;;;;;;8.80;4.05;;;19.30;39.00;;;;;;5113374;28;20527;-54
2021/11/23 00:26:06;;;;;;;7.93;4.00;;;19.30;39.00;;;;;;5113393;28;20039;-56
2021/11/23 00:28:32;;;;;;;8.43;3.92;;;19.30;39.00;;;;;;5113300;28;20076;-56
2021/11/23 00:30:58;;;;;;;7.43;3.80;;;19.30;39.10;;;;;;5113313;28;20030;-54
2021/11/23 00:33:23;;;;;;;7.63;3.88;;;19.30;39.10;;;;;;5113513;28;20028;-56
2021/11/23 00:35:49;;;;;;;8.18;4.15;;;19.30;39.00;;;;;;5113483;28;20020;-55
2021/11/23 00:38:16;;;;;;;6.47;3.70;;;19.20;39.00;;;;;;5113438;28;20035;-56
2021/11/23 00:40:43;;;;;;;8.20;4.28;;;19.30;38.90;;;;;;5111700;28;20081;-55
2021/11/23 00:43:08;;;;;;;7.65;3.78;;;19.30;39.00;;;;;;5113204;28;20047;-53
2021/11/23 00:45:36;;;;;;;8.15;4.30;;;19.30;38.90;;;;;;5113124;28;20035;-54
2021/11/23 00:48:02;;;;;;;7.85;4.00;;;19.20;38.90;;;;;;5113162;28;20027;-56
2021/11/23 00:50:29;;;;;;;9.00;3.90;;;19.20;39.00;;;;;;5113353;28;20019;-56
2021/11/23 00:52:55;;;;;;;9.98;4.53;;;19.20;39.00;;;;;;5113037;28;20534;-56
2021/11/23 00:55:21;;;;;;;7.45;4.05;;;19.30;38.90;;;;;;5113076;28;20119;-55
2021/11/23 00:57:47;;;;;;;9.02;4.38;;;19.20;38.90;;;;;;5113006;28;20524;-56
2021/11/23 01:00:13;;;;;;;7.65;4.00;;;19.20;39.00;;;;;;5113230;28;20057;-55
2021/11/23 01:02:39;;;;;;;8.13;4.15;;;19.20;38.90;;;;;;5113032;28;20069;-56
2021/11/23 01:05:05;;;;;;;7.28;3.97;;;19.20;38.80;;;;;;5112891;28;20040;-56
2021/11/23 01:07:32;;;;;;;9.85;4.10;;;19.20;38.90;;;;;;5113127;28;20024;-56
2021/11/23 01:09:57;;;;;;;8.68;4.68;;;19.20;38.90;;;;;;5114187;28;20107;-56
2021/11/23 01:12:24;;;;;;;8.43;4.03;;;19.20;38.90;;;;;;5116758;28;20548;-55
2021/11/23 01:14:50;;;;;;;8.20;4.15;;;19.20;38.90;;;;;;5116673;28;20034;-56
2021/11/23 01:17:16;;;;;;;8.00;4.00;;;19.20;38.80;;;;;;5116655;28;20024;-55
2021/11/23 01:19:43;;;;;;;7.70;3.88;;;19.20;38.80;;;;;;5116598;28;20053;-54
2021/11/23 01:22:08;;;;;;;7.72;4.05;;;19.20;38.90;;;;;;5116589;28;20016;-52
2021/11/23 01:24:34;;;;;;;10.50;4.18;;;19.20;38.80;;;;;;5116603;28;20039;-54
2021/11/23 01:26:59;;;;;;;9.30;4.85;;;19.20;38.80;;;;;;5116623;28;20012;-56
2021/11/23 01:29:26;;;;;;;8.43;3.90;;;19.20;38.80;;;;;;5116528;28;20023;-55
2021/11/23 01:31:51;;;;;;;7.50;3.92;;;19.20;38.70;;;;;;5116654;28;20026;-55
2021/11/23 01:34:19;;;;;;;8.70;4.65;;;19.20;38.90;;;;;;5116343;28;20371;-53
2021/11/23 01:36:46;;;;;;;8.07;4.22;;;19.20;38.80;;;;;;5116248;28;20036;-53
2021/11/23 01:39:12;;;;;;;9.75;4.45;;;19.10;38.80;;;;;;5116386;28;20103;-55
2021/11/23 01:41:37;;;;;;;8.13;3.95;;;19.10;38.90;;;;;;5116209;28;20074;-56
2021/11/23 01:44:03;;;;;;;9.50;4.13;;;19.10;38.80;;;;;;5116345;28;20016;-54
2021/11/23 01:46:28;;;;;;;8.43;4.90;;;19.10;38.70;;;;;;5115988;28;20023;-55
2021/11/23 01:48:54;;;;;;;8.57;4.35;;;19.10;38.80;;;;;;5115984;28;20022;-55
2021/11/23 01:51:20;;;;;;;7.78;4.07;;;19.10;38.80;;;;;;5116249;28;20115;-54
2021/11/23 01:53:46;;;;;;;9.57;4.15;;;19.10;38.80;;;;;;5116188;28;20042;-52
2021/11/23 01:56:12;;;;;;;7.75;3.78;;;19.10;38.70;;;;;;5116206;28;20024;-54
2021/11/23 01:58:38;;;;;;;8.57;4.45;;;19.10;38.70;;;;;;5116139;28;20028;-55
2021/11/23 02:01:06;;;;;;;7.88;4.07;;;19.10;38.80;;;;;;5115805;27;20106;-56
2021/11/23 02:03:33;;;;;;;8.35;4.38;;;19.10;38.70;;;;;;5115740;28;20031;-56
2021/11/23 02:05:59;;;;;;;8.73;4.43;;;19.10;38.80;;;;;;5115677;28;20046;-55
2021/11/23 02:08:24;;;;;;;7.88;4.32;;;19.10;38.70;;;;;;5115621;28;20024;-55
2021/11/23 02:10:50;;;;;;;6.55;4.00;;;19.10;38.60;;;;;;5115647;28;20114;-55
2021/11/23 02:13:15;;;;;;;9.27;4.20;;;19.10;38.70;;;;;;5115599;28;20016;-56
2021/11/23 02:15:41;;;;;;;8.82;4.18;;;19.10;38.80;;;;;;5115562;28;20019;-56
2021/11/23 02:18:19;;;;;;;7.05;3.97;;;19.10;38.70;;;;;;5115643;28;20027;-58
2021/11/23 02:20:45;;;;;;;9.32;4.40;;;19.10;38.60;;;;;;5115489;28;20027;-55
2021/11/23 02:23:12;;;;;;;8.18;4.07;;;19.10;38.70;;;;;;5114704;28;20065;-55
2021/11/23 02:25:37;;;;;;;8.88;4.72;;;19.10;38.80;;;;;;5115339;28;20046;-54
2021/11/23 02:28:07;;;;;;;9.45;4.53;;;19.10;38.70;;;;;;5115510;28;20099;-58
2021/11/23 02:30:41;;;;;;;8.13;3.97;;;19.10;38.70;;;;;;5115539;28;20023;-54
2021/11/23 02:33:06;;;;;;;8.68;4.50;;;19.00;38.60;;;;;;5115164;28;20023;-55
2021/11/23 02:35:33;;;;;;;9.30;4.13;;;19.10;38.70;;;;;;5115176;28;20031;-55
2021/11/23 02:37:58;;;;;;;10.93;4.40;;;19.10;38.70;;;;;;5114979;28;20028;-54
2021/11/23 02:40:24;;;;;;;10.48;4.82;;;19.10;38.70;;;;;;5115264;28;20035;-56
2021/11/23 02:42:50;;;;;;;8.57;4.30;;;19.10;38.50;;;;;;5113683;28;20071;-56
2021/11/23 02:45:18;;;;;;;9.23;3.95;;;19.10;38.60;;;;;;5115140;28;20044;-54
2021/11/23 02:47:45;;;;;;;9.07;4.30;;;19.10;38.70;;;;;;5113685;28;20019;-54
2021/11/23 02:50:13;;;;;;;8.27;4.50;;;19.10;38.70;;;;;;5114847;28;20028;-56
2021/11/23 02:52:42;;;;;;;8.32;4.40;;;19.10;38.70;;;;;;5114913;28;20023;-55
2021/11/23 02:55:07;;;;;;;8.32;4.35;;;19.10;38.70;;;;;;5115014;28;20023;-55
2021/11/23 02:57:34;;;;;;;8.52;4.47;;;19.00;38.70;;;;;;5113452;28;20089;-54
2021/11/23 03:00:06;;;;;;;8.88;4.30;;;19.10;38.60;;;;;;5114681;28;20051;-55
2021/11/23 03:02:32;;;;;;;7.28;4.18;;;19.10;38.70;;;;;;5114537;28;20023;-53
2021/11/23 03:04:58;;;;;;;7.88;3.97;;;19.00;38.70;;;;;;5114772;28;20084;-55
2021/11/23 03:07:25;;;;;;;8.02;4.32;;;19.00;38.60;;;;;;5114669;28;20027;-55
2021/11/23 03:09:51;;;;;;;8.85;4.10;;;19.00;38.70;;;;;;5114474;28;20023;-53
2021/11/23 03:12:26;;;;;;;7.43;3.72;;;19.00;38.70;;;;;;5114367;28;20023;-56
2021/11/23 03:14:52;;;;;;;8.90;4.38;;;19.10;38.60;;;;;;5114673;28;20027;-56
2021/11/23 03:17:19;;;;;;;7.32;3.58;;;19.10;38.60;;;;;;5113090;28;20413;-55
2021/11/23 03:19:46;;;;;;;8.77;4.20;;;19.00;38.70;;;;;;5114543;28;20403;-55
2021/11/23 03:22:13;;;;;;;7.95;3.67;;;19.00;38.60;;;;;;5114200;28;20034;-52
2021/11/23 03:24:39;;;;;;;7.72;4.25;;;19.00;38.60;;;;;;5113989;28;20034;-52
2021/11/23 03:27:07;;;;;;;9.43;4.63;;;19.00;38.70;;;;;;5114385;28;20114;-56
2021/11/23 03:29:32;;;;;;;7.55;3.97;;;19.00;38.70;;;;;;5114323;28;20030;-55
2021/11/23 03:31:58;;;;;;;7.07;3.83;;;19.10;38.70;;;;;;5113062;28;20023;-51
2021/11/23 03:34:24;;;;;;;7.57;4.15;;;19.10;38.70;;;;;;5113830;28;20031;-53
2021/11/23 03:36:50;;;;;;;8.35;4.00;;;19.10;38.70;;;;;;5113814;28;20072;-56
2021/11/23 03:39:16;;;;;;;7.95;3.83;;;19.10;38.60;;;;;;5113918;28;20096;-55
2021/11/23 03:41:42;;;;;;;8.80;4.07;;;19.10;38.60;;;;;;5113798;28;20044;-55
2021/11/23 03:44:08;;;;;;;7.82;3.92;;;19.00;38.60;;;;;;5114028;28;20022;-55
2021/11/23 03:46:34;;;;;;;7.93;3.80;;;19.10;38.60;;;;;;5112510;28;20499;-55
2021/11/23 03:49:00;;;;;;;9.63;4.50;;;19.00;38.70;;;;;;5113914;28;20024;-55
2021/11/23 03:51:26;;;;;;;7.22;3.47;;;19.00;38.60;;;;;;5114006;28;20073;-55
2021/11/23 03:53:52;;;;;;;6.88;3.55;;;19.00;38.70;;;;;;5113958;28;20023;-54
2021/11/23 03:56:18;;;;;;;8.32;3.63;;;19.00;38.70;;;;;;5113637;28;20015;-51
2021/11/23 03:58:44;;;;;;;7.93;3.95;;;19.10;38.60;;;;;;5112351;28;20036;-52
2021/11/23 04:01:09;;;;;;;7.18;3.83;;;19.10;38.60;;;;;;5113912;28;20015;-55
2021/11/23 04:03:35;;;;;;;7.18;3.50;;;19.10;38.70;;;;;;5112331;28;20474;-55
2021/11/23 04:06:02;;;;;;;7.43;3.85;;;19.00;38.70;;;;;;5113526;28;20035;-53
2021/11/23 04:08:28;;;;;;;7.50;3.83;;;19.00;38.60;;;;;;5113409;28;20383;-53
2021/11/23 04:10:54;;;;;;;9.15;4.00;;;19.00;38.70;;;;;;5113426;28;20027;-56
2021/11/23 04:13:20;;;;;;;7.05;3.47;;;19.00;38.70;;;;;;5113820;28;20035;-55
2021/11/23 04:15:47;;;;;;;8.02;4.07;;;19.00;38.70;;;;;;5113568;28;20023;-52
2021/11/23 04:18:13;;;;;;;8.57;3.72;;;19.00;38.80;;;;;;5113429;28;20023;-55
2021/11/23 04:20:38;;;;;;;7.20;3.80;;;19.00;38.60;;;;;;5113496;28;20030;-56
2021/11/23 04:23:05;;;;;;;7.68;3.70;;;19.10;38.60;;;;;;5113567;28;20463;-54
2021/11/23 04:25:31;;;;;;;6.63;3.60;;;19.10;38.60;;;;;;5113227;28;20035;-51
2021/11/23 04:27:57;;;;;;;7.68;3.72;;;19.10;38.70;;;;;;5113659;28;20027;-53
2021/11/23 04:30:24;;;;;;;7.72;3.60;;;19.00;38.70;;;;;;5113311;28;20035;-55
2021/11/23 04:32:49;;;;;;;7.45;3.90;;;19.00;38.70;;;;;;5113367;28;20352;-55
2021/11/23 04:35:16;;;;;;;6.20;3.08;;;19.00;38.70;;;;;;5113490;28;20046;-52
2021/11/23 04:37:43;;;;;;;7.22;3.55;;;19.00;38.70;;;;;;5113163;28;20020;-55
2021/11/23 04:40:11;;;;;;;6.80;3.47;;;19.00;38.70;;;;;;5113485;28;20035;-54
2021/11/23 04:42:37;;;;;;;7.93;3.90;;;19.10;38.70;;;;;;5112995;28;20122;-55
2021/11/23 04:45:04;;;;;;;8.82;3.95;;;19.10;38.70;;;;;;5114680;28;20067;-56
2021/11/23 04:47:30;;;;;;;8.07;3.88;;;19.10;38.70;;;;;;5117217;28;20024;-54
2021/11/23 04:49:55;;;;;;;12.85;5.13;;;19.00;38.70;;;;;;5117214;28;20023;-53
2021/11/23 04:52:21;;;;;;;7.28;3.45;;;19.00;38.70;;;;;;5117421;28;20035;-55
2021/11/23 04:54:46;;;;;;;7.93;3.40;;;19.00;38.70;;;;;;5117356;28;20023;-54
2021/11/23 04:57:12;;;;;;;6.90;3.50;;;19.00;38.70;;;;;;5117320;28;20467;-54
2021/11/23 04:59:38;;;;;;;7.30;3.40;;;19.00;38.80;;;;;;5117069;28;20036;-53
2021/11/23 05:02:03;;;;;;;7.97;3.63;;;19.00;38.80;;;;;;5117286;28;20467;-52
2021/11/23 05:04:29;;;;;;;7.85;3.75;;;19.10;38.80;;;;;;5116963;28;20039;-56
2021/11/23 05:06:55;;;;;;;6.90;3.20;;;19.00;38.70;;;;;;5116864;28;20470;-56
2021/11/23 05:09:20;;;;;;;10.77;4.25;;;19.10;38.80;;;;;;5116987;28;20020;-54
2021/11/23 05:11:48;;;;;;;8.27;4.03;;;19.00;38.80;;;;;;5116961;28;20024;-55
2021/11/23 05:14:14;;;;;;;6.82;3.13;;;19.00;38.80;;;;;;5116880;28;20020;-53
2021/11/23 05:16:40;;;;;;;8.13;4.13;;;19.10;38.80;;;;;;5116802;28;20062;-56
2021/11/23 05:19:05;;;;;;;7.05;3.30;;;19.10;38.70;;;;;;5116670;28;20479;-55
2021/11/23 05:21:31;;;;;;;7.60;3.38;;;19.10;38.70;;;;;;5116828;28;20024;-55
2021/11/23 05:23:57;;;;;;;7.57;3.45;;;19.20;38.70;;;;;;5116846;28;20107;-55
2021/11/23 05:26:22;;;;;;;7.53;3.90;;;19.20;38.60;;;;;;5116861;28;20032;-52
2021/11/23 05:28:48;;;;;;;6.88;3.33;;;19.20;38.60;;;;;;5116647;28;20023;-54
2021/11/23 05:31:13;;;;;;;7.20;2.92;;;19.20;38.60;;;;;;5115335;28;20055;-55
2021/11/23 05:33:39;;;;;;;5.88;3.05;;;19.20;38.60;;;;;;5116458;28;20530;-55
2021/11/23 05:36:04;;;;;;;7.03;3.20;;;19.30;38.50;;;;;;5116175;28;20106;-55
2021/11/23 05:38:30;;;;;;;7.47;3.30;;;19.30;38.50;;;;;;5116294;28;20115;-55
2021/11/23 05:40:55;;;;;;;7.38;3.60;;;19.40;38.50;;;;;;5116265;28;20467;-55
2021/11/23 05:43:21;;;;;;;7.40;3.50;;;19.40;38.60;;;;;;5116238;28;20036;-55
2021/11/23 05:45:46;;;;;;;8.02;3.50;;;19.40;38.50;;;;;;5116021;28;20387;-54
2021/11/23 05:48:12;;;;;;;7.20;3.20;;;19.40;38.50;;;;;;5116095;28;20019;-55
2021/11/23 05:50:39;;;;;;;7.97;3.60;;;19.40;38.50;;;;;;5116512;28;20039;-54
2021/11/23 05:53:05;;;;;;;7.50;3.58;;;19.40;38.40;;;;;;5116331;28;20103;-55
2021/11/23 05:55:31;;;;;;;7.20;3.22;;;19.50;38.40;;;;;;5115740;28;20054;-56
2021/11/23 05:57:56;;;;;;;7.63;3.13;;;19.50;38.50;;;;;;5114982;28;20096;-56
2021/11/23 06:00:22;;;;;;;8.13;3.88;;;19.50;38.40;;;;;;5115920;28;20031;-56
2021/11/23 06:02:48;;;;;;;6.93;3.20;;;19.50;38.50;;;;;;5115878;28;20470;-55
2021/11/23 06:05:14;;;;;;;7.18;3.53;;;19.50;38.50;;;;;;5115942;28;20039;-53
2021/11/23 06:07:39;;;;;;;9.25;3.10;;;19.50;38.50;;;;;;5115978;28;20016;-55
2021/11/23 06:10:06;;;;;;;8.70;2.97;;;19.50;38.50;;;;;;5115902;28;20382;-55
2021/11/23 06:12:31;;;;;;;6.80;2.80;;;19.50;38.50;;;;;;5115783;28;20436;-56
2021/11/23 06:14:58;;;;;;;7.95;3.28;;;19.50;38.50;;;;;;5115565;28;20024;-55
2021/11/23 06:17:27;;;;;;;8.05;3.20;;;19.50;38.50;;;;;;5115554;28;20055;-55
2021/11/23 06:19:53;;;;;;;8.35;3.97;;;19.60;38.50;;;;;;5115477;28;20539;-52
2021/11/23 06:22:19;;;;;;;6.43;3.08;;;19.60;38.50;;;;;;5115671;28;20032;-54
2021/11/23 06:24:44;;;;;;;6.88;3.22;;;19.60;38.50;;;;;;5115551;28;20459;-54
2021/11/23 06:27:10;;;;;;;6.47;3.05;;;19.60;38.50;;;;;;5115395;28;20467;-53
2021/11/23 06:29:36;;;;;;;5.78;3.35;;;19.60;38.60;;;;;;5115325;28;20474;-55
2021/11/23 06:32:01;;;;;;;6.78;3.50;;;19.60;38.50;;;;;;5115155;28;20024;-54
2021/11/23 06:34:27;;;;;;;8.70;3.30;;;19.60;38.50;;;;;;5115222;28;20108;-55
2021/11/23 06:36:52;;;;;;;5.88;3.13;;;19.60;38.60;;;;;;5115116;28;20380;-54
2021/11/23 06:39:19;;;;;;;7.95;3.50;;;19.60;38.60;;;;;;5115282;28;20077;-55
2021/11/23 06:41:45;;;;;;;8.48;3.13;;;19.70;38.60;;;;;;5115019;28;20514;-54
2021/11/23 06:44:10;;;;;;;6.35;3.17;;;19.60;38.60;;;;;;5114962;28;20067;-54
2021/11/23 06:46:36;;;;;;;6.93;3.05;;;19.70;38.60;;;;;;5114993;28;20027;-55
2021/11/23 06:49:03;;;;;;;6.65;3.08;;;19.70;38.60;;;;;;5114897;28;20106;-55
2021/11/23 06:51:29;;;;;;;6.55;2.78;;;19.70;38.70;;;;;;5114601;28;20073;-55
2021/11/23 06:53:55;;;;;;;6.43;3.05;;;19.70;38.60;;;;;;5115090;28;20098;-53
2021/11/23 06:56:21;;;;;;;6.30;3.33;;;19.70;38.60;;;;;;5114877;28;20027;-56
2021/11/23 06:58:47;;;;;;;6.10;2.97;;;19.70;38.60;;;;;;5115193;28;20028;-56
2021/11/23 07:01:13;;;;;;;8.27;3.45;;;19.70;38.70;;;;;;5114596;28;20023;-55
2021/11/23 07:03:38;;;;;;;6.82;2.70;;;19.70;38.60;;;;;;5114531;28;20027;-55
2021/11/23 07:06:04;;;;;;;6.07;2.90;;;19.70;38.70;;;;;;5114588;28;20046;-55
2021/11/23 07:08:31;;;;;;;6.93;2.90;;;19.70;38.70;;;;;;5114147;28;20093;-58
2021/11/23 07:10:56;;;;;;;7.13;3.40;;;19.70;38.70;;;;;;5114549;28;20096;-56
2021/11/23 07:13:22;;;;;;;6.50;3.13;;;19.70;38.70;;;;;;5114461;28;20043;-55
2021/11/23 07:15:48;;;;;;;7.50;3.50;;;19.70;38.70;;;;;;5114326;28;20098;-60
2021/11/23 07:18:14;;;;;;;4.82;2.53;;;19.70;38.80;;;;;;5114625;28;20016;-55
2021/11/23 07:20:39;;;;;;;7.28;3.60;;;19.70;38.80;;;;;;5114298;28;20034;-51
2021/11/23 07:23:06;;;;;;;7.22;3.28;;;19.70;38.90;;;;;;5099861;28;20024;-55
2021/11/23 07:25:31;;;;;;;8.15;3.50;;;19.70;38.90;;;;;;5100624;28;20043;-55
2021/11/23 07:28:00;;;;;;;7.30;3.65;;;19.80;39.20;;;;;;5105475;28;20023;-55
2021/11/23 07:30:25;;;;;;;6.47;2.83;;;19.70;39.10;;;;;;5113517;28;20027;-54
2021/11/23 07:32:51;;;;;;;6.65;3.10;;;19.80;39.00;;;;;;5095542;28;20036;-53
2021/11/23 07:35:18;;;;;;;5.97;2.83;;;19.80;39.20;;;;;;5093111;28;20020;-56
2021/11/23 07:37:45;;;;;;;6.75;3.15;;;19.80;39.10;;;;;;5092647;28;20056;-54
2021/11/23 07:40:11;;;;;;;8.25;3.38;;;19.80;39.00;;;;;;5101116;28;20034;-55
2021/11/23 07:42:37;;;;;;;6.18;2.88;;;19.80;39.00;;;;;;5112911;28;20085;-51
2021/11/23 07:45:04;;;;;;;5.45;2.58;;;19.80;39.10;;;;;;5094777;28;20043;-52
2021/11/23 07:47:29;;;;;;;6.90;3.15;;;19.90;39.20;;;;;;5098835;28;20068;-53
2021/11/23 07:49:56;;;;;;;6.93;2.88;;;19.90;39.10;;;;;;5111470;28;20053;-55
2021/11/23 07:52:21;;;;;;;6.43;2.85;;;19.90;39.10;;;;;;5112493;28;20023;-51
2021/11/23 07:54:47;;;;;;;6.13;2.83;;;19.90;39.30;;;;;;5112723;28;20116;-55
2021/11/23 07:57:12;;;;;;;7.85;3.25;;;19.90;39.30;;;;;;5097538;28;20062;-55
2021/11/23 07:59:38;;;;;;;7.10;3.00;;;20.00;39.20;;;;;;5112160;28;20027;-55
2021/11/23 08:02:04;;;;;;;6.57;3.28;;;19.90;39.20;;;;;;5112688;28;20031;-53
2021/11/23 08:04:29;;;;;;;5.88;3.00;;;19.90;39.20;;;;;;5110370;28;20023;-52
2021/11/23 08:06:55;;;;;;;7.97;2.97;;;20.00;39.20;;;;;;5102345;28;20430;-52
2021/11/23 08:09:20;;;;;;;6.55;3.10;;;20.00;39.20;;;;;;5110163;28;20024;-54
2021/11/23 08:11:46;;;;;;;6.45;2.83;;;20.00;39.20;;;;;;5110541;28;20377;-55
2021/11/23 08:14:11;;;;;;;6.55;2.40;;;20.00;39.20;;;;;;5110989;28;20024;-52
2021/11/23 08:16:37;;;;;;;5.38;2.45;;;20.00;39.30;;;;;;5104571;28;20028;-54
2021/11/23 08:19:03;;;;;;;6.30;2.50;;;20.00;39.30;;;;;;5108269;28;20024;-54
2021/11/23 08:21:31;;;;;;;6.97;2.92;;;20.00;39.20;;;;;;5095109;28;20028;-53
2021/11/23 08:23:58;;;;;;;7.90;3.03;;;20.00;39.20;;;;;;5092717;28;20028;-55
2021/11/23 08:26:24;;;;;;;7.45;2.95;;;20.00;39.20;;;;;;5086985;28;20036;-55
2021/11/23 08:28:50;;;;;;;6.90;2.90;;;20.00;39.20;;;;;;5089968;28;20115;-55
2021/11/23 08:31:15;;;;;;;7.95;2.75;;;20.00;39.20;;;;;;5092526;28;20459;-55
2021/11/23 08:33:41;;;;;;;8.85;2.92;;;20.00;39.20;;;;;;5092548;28;20025;-54
2021/11/23 08:36:08;;;;;;;6.82;2.67;;;20.00;39.20;;;;;;5086810;28;20032;-55
2021/11/23 08:38:35;;;;;;;5.43;2.60;;;20.00;39.20;;;;;;5089952;28;20027;-55
2021/11/23 08:41:00;;;;;;;6.70;3.25;;;20.00;39.20;;;;;;5092407;28;20143;-56
2021/11/23 08:43:26;;;;;;;7.45;2.80;;;20.00;39.20;;;;;;5092244;28;20115;-56
2021/11/23 08:45:52;;;;;;;6.53;2.70;;;20.00;39.20;;;;;;5089160;28;20060;-56
2021/11/23 08:48:18;;;;;;;6.30;2.85;;;20.00;39.30;;;;;;5087127;28;20028;-52
2021/11/23 08:50:44;;;;;;;5.82;3.00;;;20.00;39.30;;;;;;5092286;28;20384;-52
2021/11/23 08:53:09;;;;;;;5.85;2.63;;;20.10;39.30;;;;;;5092335;28;20073;-54
2021/11/23 08:55:39;;;;;;;6.50;2.80;;;20.00;39.20;;;;;;5088995;28;20032;-56
2021/11/23 08:58:06;;;;;;;6.57;2.88;;;20.00;39.30;;;;;;5086534;28;20103;-53
2021/11/23 09:00:33;;;;;;;6.00;2.75;;;20.00;39.30;;;;;;5098697;28;20033;-53
2021/11/23 09:03:00;;;;;;;6.22;2.80;;;20.00;39.30;;;;;;5092171;28;20104;-50
2021/11/23 09:05:31;;;;;;;5.63;2.65;;;20.10;39.30;;;;;;5091309;28;20077;-51
2021/11/23 09:07:59;;;;;;;7.72;2.88;;;20.10;39.30;;;;;;5087175;28;20095;-53
2021/11/23 09:10:26;;;;;;;5.70;2.70;;;20.00;39.40;;;;;;5092166;28;20064;-55
2021/11/23 09:12:55;;;;;;;6.97;2.97;;;20.00;39.40;;;;;;5092164;28;20058;-51
2021/11/23 09:15:21;;;;;;;6.82;3.15;;;20.00;39.40;;;;;;5092031;28;20023;-52
2021/11/23 09:17:48;;;;;;;6.03;2.80;;;20.00;39.40;;;;;;5084472;28;20024;-50
2021/11/23 09:20:15;;;;;;;5.05;2.20;;;20.00;39.40;;;;;;5090977;28;20472;-55
2021/11/23 09:22:41;;;;;;;7.10;3.28;;;20.10;39.40;;;;;;5092212;28;20503;-55
2021/11/23 09:25:09;;;;;;;4.90;2.30;;;20.10;39.40;;;;;;5091835;28;20070;-55
2021/11/23 09:27:35;;;;;;;6.30;2.75;;;20.10;39.40;;;;;;5083531;28;20028;-55
2021/11/23 09:30:00;;;;;;;6.97;2.63;;;20.10;39.40;;;;;;5092058;28;20031;-50
2021/11/23 09:32:27;;;;;;;6.10;2.83;;;20.10;39.40;;;;;;5095556;28;20027;-54
2021/11/23 09:34:54;;;;;;;5.80;2.70;;;20.10;39.40;;;;;;5095431;28;20123;-49
2021/11/23 09:37:19;;;;;;;7.15;3.08;;;20.10;39.50;;;;;;5102091;28;20548;-54
2021/11/23 09:39:45;;;;;;;6.38;3.15;;;20.00;39.60;;;;;;5114062;28;20051;-52
2021/11/23 09:42:10;;;;;;;7.25;3.25;;;20.10;39.60;;;;;;5115174;28;20047;-52
2021/11/23 09:44:36;;;;;;;6.28;2.78;;;20.10;39.60;;;;;;5115990;28;20028;-53
2021/11/23 09:47:02;;;;;;;6.55;3.00;;;20.10;39.50;;;;;;5105673;28;20067;-50
2021/11/23 09:49:28;;;;;;;8.07;3.90;;;20.10;39.50;;;;;;5115279;27;20391;-50
2021/11/23 09:51:54;;;;;;;6.68;2.92;;;20.10;39.50;;;;;;5115556;28;20081;-54
2021/11/23 09:54:19;;;;;;;7.22;3.20;;;20.10;39.50;;;;;;5115043;28;20027;-51
2021/11/23 09:56:47;;;;;;;7.20;2.83;;;20.10;39.50;;;;;;5108317;28;20030;-53
2021/11/23 09:59:12;;;;;;;6.63;3.10;;;20.10;39.50;;;;;;5109401;28;20022;-51
2021/11/23 10:01:51;;;;;;;5.85;2.78;;;20.10;39.60;;;;;;5113191;28;20032;-53
2021/11/23 10:04:19;;;;;;;6.90;2.95;;;20.10;39.60;;;;;;5113841;28;20050;-53
2021/11/23 10:07:06;;;;;;;6.28;2.88;;;20.10;39.60;;;;;;5104754;28;20035;-53
2021/11/23 10:09:40;;;;;;;6.35;3.22;;;20.10;39.60;;;;;;5113632;28;20024;-54
2021/11/23 10:12:22;;;;;;;5.63;2.95;;;20.10;39.60;;;;;;5114521;28;20024;-51
2021/11/23 10:15:14;;;;;;;5.95;2.80;;;20.10;39.60;;;;;;5115389;28;20132;-52
2021/11/23 10:17:42;;;;;;;5.70;2.88;;;20.10;39.60;;;;;;5106450;28;20147;-52
2021/11/23 10:20:37;;;;;;;5.78;2.90;;;20.10;39.60;;;;;;5114926;28;20466;-53
2021/11/23 10:23:41;;;;;;;8.13;2.90;;;20.10;39.60;;;;;;5115129;28;20059;-51
2021/11/23 10:26:14;;;;;;;6.72;2.55;;;20.10;39.60;;;;;;5066010;28;20450;-50
2021/11/23 10:28:43;;;;;;;8.40;3.17;;;20.10;39.60;;;;;;5106184;27;20032;-51
2021/11/23 10:31:11;;;;;;;6.38;3.03;;;20.20;39.60;;;;;;5114955;28;20027;-53
2021/11/23 10:33:38;;;;;;;5.90;2.75;;;20.20;39.60;;;;;;5114844;28;20494;-55
2021/11/23 10:36:07;;;;;;;6.57;3.05;;;20.10;39.60;;;;;;5108933;28;20438;-55
2021/11/23 10:38:34;;;;;;;6.07;3.08;;;20.10;39.60;;;;;;5112128;27;20052;-53
2021/11/23 10:41:08;;;;;;;6.72;3.00;;;20.10;39.70;;;;;;5114805;28;20024;-56
2021/11/23 10:43:38;;;;;;;7.75;3.25;;;20.10;39.70;;;;;;5114344;28;20027;-55
2021/11/23 10:46:10;;;;;;;6.78;3.40;;;20.20;39.70;;;;;;5108477;28;20491;-55
2021/11/23 10:48:36;;;;;;;6.65;3.15;;;20.10;39.70;;;;;;5111678;28;20493;-55
2021/11/23 10:51:03;;;;;;;6.03;2.95;;;20.10;39.70;;;;;;5114613;28;20027;-55
2021/11/23 10:53:30;;;;;;;6.65;3.45;;;20.10;39.70;;;;;;5114420;27;20019;-55
2021/11/23 10:56:06;;;;;;;5.30;2.75;;;20.20;39.70;;;;;;5110989;28;20020;-54
2021/11/23 10:58:32;;;;;;;7.15;2.75;;;20.10;39.70;;;;;;5111366;28;20027;-54
2021/11/23 11:00:58;;;;;;;6.68;3.08;;;20.20;39.70;;;;;;5114648;28;20062;-57
2021/11/23 11:03:26;;;;;;;7.90;3.17;;;20.20;39.70;;;;;;5114437;28;20051;-56
2021/11/23 11:05:51;;;;;;;7.78;3.55;;;20.20;39.80;;;;;;5110692;28;20552;-52
2021/11/23 11:08:21;;;;;;;8.13;3.20;;;20.20;39.80;;;;;;5108582;28;20059;-55
2021/11/23 11:10:48;;;;;;;7.72;3.40;;;20.10;39.80;;;;;;5112803;28;20031;-52
2021/11/23 11:13:17;;;;;;;6.22;3.15;;;20.10;39.80;;;;;;5114171;28;20062;-54
2021/11/23 11:15:49;;;;;;;8.88;4.90;;;20.20;39.80;;;;;;5110514;28;20498;-50
2021/11/23 11:18:16;;;;;;;8.50;3.28;;;20.20;39.70;;;;;;5108744;28;20038;-54
2021/11/23 11:20:51;;;;;;;7.05;3.50;;;20.10;39.90;;;;;;5114300;28;20028;-55
2021/11/23 11:23:25;;;;;;;7.90;3.67;;;20.10;39.90;;;;;;5114004;28;20019;-55
2021/11/23 11:28:49;;;;;;;7.75;3.63;;;20.20;39.90;;;;;;5111137;28;20026;-56
2021/11/23 11:31:46;;;;;;;6.93;3.33;;;20.20;39.90;;;;;;5113703;28;20118;-56
2021/11/23 11:34:22;;;;;;;7.57;3.35;;;20.10;39.90;;;;;;5113626;28;20436;-57
2021/11/23 11:37:04;;;;;;;8.27;3.30;;;20.20;39.90;;;;;;5107255;28;20020;-55
2021/11/23 11:39:36;;;;;;;7.32;3.40;;;20.20;39.90;;;;;;5113961;28;20015;-54
2021/11/23 11:42:05;;;;;;;9.80;4.20;;;20.10;39.90;;;;;;5113652;28;20127;-55
2021/11/23 11:44:39;;;;;;;6.28;3.20;;;20.10;39.90;;;;;;5113574;28;20028;-55
2021/11/23 11:47:07;;;;;;;7.78;3.58;;;20.20;39.90;;;;;;5104645;28;20054;-54
2021/11/23 11:49:51;;;;;;;10.10;3.75;;;20.20;39.90;;;;;;5113880;28;20089;-55
2021/11/23 11:52:21;;;;;;;9.65;3.97;;;20.20;40.00;;;;;;5113520;28;20050;-55
2021/11/23 11:55:11;;;;;;;8.45;3.63;;;20.20;40.00;;;;;;5113539;28;20062;-55
2021/11/23 11:57:41;;;;;;;7.35;3.17;;;20.10;40.00;;;;;;5104316;28;20063;-55
2021/11/23 12:00:27;;;;;;;6.68;3.33;;;20.10;40.00;;;;;;5113677;28;20039;-55
2021/11/23 12:02:55;;;;;;;7.15;3.28;;;20.10;40.00;;;;;;5113266;28;20027;-55
2021/11/23 12:05:21;;;;;;;8.70;3.70;;;20.20;40.00;;;;;;5112914;28;20462;-50
2021/11/23 12:07:49;;;;;;;6.55;3.33;;;20.10;40.00;;;;;;5104961;28;20026;-57
2021/11/23 12:10:28;;;;;;;8.65;3.78;;;20.20;40.00;;;;;;5112916;28;20550;-58
2021/11/23 12:12:56;;;;;;;10.13;4.80;;;20.20;39.90;;;;;;5113282;28;20028;-59
2021/11/23 12:15:46;;;;;;;7.38;3.65;;;20.20;40.10;;;;;;5112192;28;20027;-55
2021/11/23 12:18:45;;;;;;;8.00;4.00;;;20.10;40.00;;;;;;5107735;28;20051;-56
2021/11/23 12:21:14;;;;;;;9.15;3.80;;;20.10;40.00;;;;;;5113194;28;20047;-56
2021/11/23 12:23:53;;;;;;;8.45;3.75;;;20.20;40.00;;;;;;5112952;28;20046;-51
2021/11/23 12:26:20;;;;;;;7.20;3.67;;;20.20;40.00;;;;;;5106709;28;20442;-58
2021/11/23 12:29:04;;;;;;;8.52;3.80;;;20.20;40.00;;;;;;5108559;28;20375;-56
2021/11/23 12:31:34;;;;;;;8.73;4.07;;;20.20;40.10;;;;;;5113010;28;20031;-55
2021/11/23 12:34:03;;;;;;;9.18;4.38;;;20.20;40.10;;;;;;5113392;28;20056;-57
2021/11/23 12:36:34;;;;;;;8.45;4.38;;;20.20;40.00;;;;;;5106856;28;20076;-56
2021/11/23 12:39:37;;;;;;;8.20;4.35;;;20.20;40.10;;;;;;5112295;28;20023;-54
2021/11/23 12:42:04;;;;;;;9.73;4.68;;;20.20;40.10;;;;;;5107758;28;20043;-55
2021/11/23 12:44:37;;;;;;;8.93;4.82;;;20.20;40.10;;;;;;5112651;28;20436;-55
2021/11/23 12:47:07;;;;;;;9.15;4.53;;;20.20;40.10;;;;;;5103267;28;20514;-54
2021/11/23 12:49:35;;;;;;;8.68;4.15;;;20.20;40.00;;;;;;5112763;28;20028;-54
2021/11/23 12:52:09;;;;;;;8.95;4.43;;;20.20;40.00;;;;;;5112648;28;20024;-54